Time;durP1;ratioP1;P1;durP2;ratioP2;P2;SDS_P1;SDS_P2;PMS_P1;PMS_P2;Temp;Humidity;BMP_temperature;BMP_pressure;BME280_temperature;BME280_humidity;BME280_pressure;Samples;Min_cycle;Max_cycle;Signal;HPM_P1;HPM_P2
2023/05/20 00:00:16;;;;;;;;;;;;;;;;;;1040833;28;3837;-47
2023/05/20 00:01:07;;;;;;;;;;;;;;;;;;1038313;28;4131;-49
2023/05/20 00:01:37;;;;;;;;;;;;;;;;;;1037423;28;3081;-49
2023/05/20 00:02:07;;;;;;;;;;;;;;;;;;1036263;28;4004;-53
2023/05/20 00:02:37;;;;;;;;;;;;;;;;;;1040617;28;3081;-48
2023/05/20 00:03:08;;;;;;;;;;;;;;;;;;1041527;28;4129;-54
2023/05/20 00:03:38;;;;;;;;;;;;;;;;;;1041883;28;3099;-52
2023/05/20 00:04:08;;;;;;;;;;;;;;;;;;1040723;28;4222;-49
2023/05/20 00:04:40;;;;;;;;;;;;;;;;;;1040692;28;3235;-50
2023/05/20 00:05:11;;;;;;;;;;;;;;;;;;1041335;28;4006;-50
2023/05/20 00:05:41;;;;;;;;;;;;;;;;;;1040901;28;1820;-49
2023/05/20 00:06:11;;;;;;;;;;;;;;;;;;1040273;28;3784;-49
2023/05/20 00:06:41;;;;;;;;;;;;;;;;;;1042847;28;1390;-50
2023/05/20 00:07:12;;;;;;;;;;;;;;;;;;1041556;28;4113;-53
2023/05/20 00:07:42;;;;;;;;;;;;;;;;;;1041732;28;3066;-48
2023/05/20 00:08:12;;;;;;;;;;;;;;;;;;1041250;28;3902;-50
2023/05/20 00:08:43;;;;;;;;;;;;;;;;;;1040478;28;1801;-50
2023/05/20 00:09:13;;;;;;;;;;;;;;;;;;1042462;28;3798;-48
2023/05/20 00:09:43;;;;;;;;;;;;;;;;;;1040746;28;3073;-49
2023/05/20 00:10:14;;;;;;;;;;;;;;;;;;1041845;28;4168;-49
2023/05/20 00:10:44;;;;;;;;;;;;;;;;;;1041171;28;3200;-55
2023/05/20 00:11:14;;;;;;;;;;;;;;;;;;1041519;28;3983;-54
2023/05/20 00:11:45;;;;;;;;;;;;;;;;;;1040952;28;2890;-50
2023/05/20 00:12:15;;;;;;;;;;;;;;;;;;1040876;28;3823;-49
2023/05/20 00:12:46;;;;;;;;;;;;;;;;;;1041049;28;3203;-52
2023/05/20 00:13:16;;;;;;;;;;;;;;;;;;1040493;28;3974;-49
2023/05/20 00:13:46;;;;;;;;;;;;;;;;;;1042589;28;3443;-49
2023/05/20 00:14:16;;;;;;;;;;;;;;;;;;1039703;28;4009;-53
2023/05/20 00:14:47;;;;;;;;;;;;;;;;;;1042098;28;3083;-48
2023/05/20 00:15:17;;;;;;;;;;;;;;;;;;1040891;28;3956;-54
2023/05/20 00:15:47;;;;;;;;;;;;;;;;;;1042458;28;2810;-53
2023/05/20 00:16:17;;;;;;;;;;;;;;;;;;1040747;28;3771;-51
2023/05/20 00:16:48;;;;;;;;;;;;;;;;;;1042275;28;1111;-45
2023/05/20 00:17:18;;;;;;;;;;;;;;;;;;1039875;28;3783;-48
2023/05/20 00:17:48;;;;;;;;;;;;;;;;;;1040971;28;2355;-49
2023/05/20 00:18:19;;;;;;;;;;;;;;;;;;1040587;28;3792;-51
2023/05/20 00:18:49;;;;;;;;;;;;;;;;;;1042275;28;1863;-51
2023/05/20 00:19:19;;;;;;;;;;;;;;;;;;1040840;28;3941;-49
2023/05/20 00:19:50;;;;;;;;;;;;;;;;;;1042810;28;1702;-47
2023/05/20 00:20:20;;;;;;;;;;;;;;;;;;1040093;28;3968;-53
2023/05/20 00:20:52;;;;;;;;;;;;;;;;;;1042680;28;1926;-51
2023/05/20 00:21:22;;;;;;;;;;;;;;;;;;1040025;28;3952;-48
2023/05/20 00:21:52;;;;;;;;;;;;;;;;;;1040891;28;3069;-53
2023/05/20 00:22:23;;;;;;;;;;;;;;;;;;1041991;28;4247;-51
2023/05/20 00:22:53;;;;;;;;;;;;;;;;;;1042059;28;1757;-49
2023/05/20 00:23:23;;;;;;;;;;;;;;;;;;1042279;28;4070;-52
2023/05/20 00:23:55;;;;;;;;;;;;;;;;;;1037162;28;3169;-51
2023/05/20 00:24:25;;;;;;;;;;;;;;;;;;1032771;28;3815;-51
2023/05/20 00:24:55;;;;;;;;;;;;;;;;;;1033581;28;1942;-49
2023/05/20 00:25:26;;;;;;;;;;;;;;;;;;1031998;28;4307;-50
2023/05/20 00:25:56;;;;;;;;;;;;;;;;;;1036801;28;2991;-47
2023/05/20 00:26:27;;;;;;;;;;;;;;;;;;1042253;28;3798;-50
2023/05/20 00:26:57;;;;;;;;;;;;;;;;;;1039500;28;2979;-49
2023/05/20 00:27:28;;;;;;;;;;;;;;;;;;1040417;28;3910;-49
2023/05/20 00:27:58;;;;;;;;;;;;;;;;;;1041345;28;2715;-50
2023/05/20 00:28:29;;;;;;;;;;;;;;;;;;1041136;28;3873;-49
2023/05/20 00:28:59;;;;;;;;;;;;;;;;;;1040054;28;3128;-52
2023/05/20 00:29:30;;;;;;;;;;;;;;;;;;1041105;28;3743;-55
2023/05/20 00:30:01;;;;;;;;;;;;;;;;;;1041319;28;3246;-51
2023/05/20 00:30:31;;;;;;;;;;;;;;;;;;1040033;28;3727;-49
2023/05/20 00:31:01;;;;;;;;;;;;;;;;;;1042578;28;1853;-49
2023/05/20 00:31:31;;;;;;;;;;;;;;;;;;1041442;28;3729;-51
2023/05/20 00:32:02;;;;;;;;;;;;;;;;;;1040670;28;4162;-47
2023/05/20 00:32:33;;;;;;;;;;;;;;;;;;1039491;28;3111;-53
2023/05/20 00:33:03;;;;;;;;;;;;;;;;;;1040546;28;4075;-51
2023/05/20 00:33:35;;;;;;;;;;;;;;;;;;1041923;28;3002;-50
2023/05/20 00:34:05;;;;;;;;;;;;;;;;;;1041335;28;3814;-50
2023/05/20 00:34:35;;;;;;;;;;;;;;;;;;1042657;28;1268;-54
2023/05/20 00:35:06;;;;;;;;;;;;;;;;;;1040923;28;3959;-47
2023/05/20 00:35:36;;;;;;;;;;;;;;;;;;1040506;28;2929;-53
2023/05/20 00:36:06;;;;;;;;;;;;;;;;;;1040812;28;3961;-48
2023/05/20 00:36:37;;;;;;;;;;;;;;;;;;1041862;28;3012;-53
2023/05/20 00:37:07;;;;;;;;;;;;;;;;;;1041733;28;3788;-51
2023/05/20 00:37:37;;;;;;;;;;;;;;;;;;1039953;28;1655;-50
2023/05/20 00:38:07;;;;;;;;;;;;;;;;;;1036352;28;4422;-55
2023/05/20 00:38:38;;;;;;;;;;;;;;;;;;1036964;28;3626;-52
2023/05/20 00:39:08;;;;;;;;;;;;;;;;;;1037312;28;4223;-48
2023/05/20 00:39:38;;;;;;;;;;;;;;;;;;1035945;28;3073;-49
2023/05/20 00:40:09;;;;;;;;;;;;;;;;;;1041490;28;3973;-48
2023/05/20 00:40:39;;;;;;;;;;;;;;;;;;1040960;28;2966;-49
2023/05/20 00:41:10;;;;;;;;;;;;;;;;;;1036003;28;3815;-49
2023/05/20 00:41:41;;;;;;;;;;;;;;;;;;1038049;28;2086;-54
2023/05/20 00:42:18;;;;;;;;;;;;;;;;;;1038252;28;3887;-49
2023/05/20 00:42:48;;;;;;;;;;;;;;;;;;1037222;28;3364;-51
2023/05/20 00:43:19;;;;;;;;;;;;;;;;;;1041475;28;3879;-50
2023/05/20 00:43:52;;;;;;;;;;;;;;;;;;1042641;28;3353;-53
2023/05/20 00:44:25;;;;;;;;;;;;;;;;;;1039668;28;3938;-50
2023/05/20 00:44:55;;;;;;;;;;;;;;;;;;1041059;28;1589;-52
2023/05/20 00:45:26;;;;;;;;;;;;;;;;;;1040826;28;3700;-52
2023/05/20 00:45:56;;;;;;;;;;;;;;;;;;1041940;28;2761;-49
2023/05/20 00:46:27;;;;;;;;;;;;;;;;;;1041205;28;3997;-48
2023/05/20 00:46:57;;;;;;;;;;;;;;;;;;1041940;28;3037;-47
2023/05/20 00:47:29;;;;;;;;;;;;;;;;;;1040867;28;3904;-53
2023/05/20 00:48:02;;;;;;;;;;;;;;;;;;1042233;28;2628;-51
2023/05/20 00:48:38;;;;;;;;;;;;;;;;;;1041877;28;3808;-50
2023/05/20 00:49:08;;;;;;;;;;;;;;;;;;1041680;28;3778;-52
2023/05/20 00:49:39;;;;;;;;;;;;;;;;;;1041571;28;3431;-48
2023/05/20 00:50:10;;;;;;;;;;;;;;;;;;1036463;28;3953;-51
2023/05/20 00:50:40;;;;;;;;;;;;;;;;;;1038183;28;3029;-52
2023/05/20 00:51:11;;;;;;;;;;;;;;;;;;1037314;28;3968;-48
2023/05/20 00:51:42;;;;;;;;;;;;;;;;;;1037781;28;3299;-50
2023/05/20 00:52:12;;;;;;;;;;;;;;;;;;1041600;28;3819;-53
2023/05/20 00:52:46;;;;;;;;;;;;;;;;;;1040336;28;3080;-53
2023/05/20 00:53:17;;;;;;;;;;;;;;;;;;1036778;28;3786;-50
2023/05/20 00:53:48;;;;;;;;;;;;;;;;;;1035867;28;1835;-50
2023/05/20 00:54:18;;;;;;;;;;;;;;;;;;1037051;28;4234;-51
2023/05/20 00:54:49;;;;;;;;;;;;;;;;;;1037640;28;1652;-45
2023/05/20 00:55:20;;;;;;;;;;;;;;;;;;1040252;28;4068;-52
2023/05/20 00:55:50;;;;;;;;;;;;;;;;;;1040349;28;3170;-49
2023/05/20 00:56:21;;;;;;;;;;;;;;;;;;1039982;28;3966;-45
2023/05/20 00:56:52;;;;;;;;;;;;;;;;;;1039854;28;3166;-49
2023/05/20 00:57:22;;;;;;;;;;;;;;;;;;1041787;28;3959;-51
2023/05/20 00:57:53;;;;;;;;;;;;;;;;;;1040884;28;2524;-53
2023/05/20 00:58:23;;;;;;;;;;;;;;;;;;1039638;28;3931;-51
2023/05/20 00:58:53;;;;;;;;;;;;;;;;;;1042560;28;1590;-53
2023/05/20 00:59:25;;;;;;;;;;;;;;;;;;1041255;28;4448;-50
2023/05/20 00:59:55;;;;;;;;;;;;;;;;;;1040400;28;2813;-50
2023/05/20 01:00:26;;;;;;;;;;;;;;;;;;1038674;28;3932;-54
2023/05/20 01:00:56;;;;;;;;;;;;;;;;;;1037388;28;2934;-56
2023/05/20 01:01:26;;;;;;;;;;;;;;;;;;1035418;28;3892;-49
2023/05/20 01:01:57;;;;;;;;;;;;;;;;;;1036597;28;3084;-46
2023/05/20 01:02:27;;;;;;;;;;;;;;;;;;1037379;28;4384;-49
2023/05/20 01:02:57;;;;;;;;;;;;;;;;;;1043022;28;2221;-48
2023/05/20 01:03:28;;;;;;;;;;;;;;;;;;1040482;28;3899;-50
2023/05/20 01:03:58;;;;;;;;;;;;;;;;;;1041053;28;3104;-52
2023/05/20 01:04:30;;;;;;;;;;;;;;;;;;1042140;28;4445;-46
2023/05/20 01:05:00;;;;;;;;;;;;;;;;;;1042466;28;2343;-53
2023/05/20 01:05:30;;;;;;;;;;;;;;;;;;1041932;28;3801;-54
2023/05/20 01:06:01;;;;;;;;;;;;;;;;;;1041168;28;2963;-55
2023/05/20 01:06:32;;;;;;;;;;;;;;;;;;1041798;28;3803;-51
2023/05/20 01:07:03;;;;;;;;;;;;;;;;;;1041424;28;3821;-48
2023/05/20 01:07:34;;;;;;;;;;;;;;;;;;1041362;28;2668;-51
2023/05/20 01:08:04;;;;;;;;;;;;;;;;;;1040010;28;3979;-51
2023/05/20 01:08:35;;;;;;;;;;;;;;;;;;1041380;28;3109;-49
2023/05/20 01:09:05;;;;;;;;;;;;;;;;;;1040448;28;4036;-52
2023/05/20 01:09:35;;;;;;;;;;;;;;;;;;1041802;28;3029;-50
2023/05/20 01:10:06;;;;;;;;;;;;;;;;;;1040608;28;3888;-50
2023/05/20 01:10:40;;;;;;;;;;;;;;;;;;1040372;28;3046;-54
2023/05/20 01:11:15;;;;;;;;;;;;;;;;;;1041177;28;3989;-47
2023/05/20 01:11:53;;;;;;;;;;;;;;;;;;1042991;28;1786;-51
2023/05/20 01:12:28;;;;;;;;;;;;;;;;;;1040076;28;3792;-52
2023/05/20 01:13:00;;;;;;;;;;;;;;;;;;1042447;28;1472;-49
2023/05/20 01:13:43;;;;;;;;;;;;;;;;;;1034798;28;3778;-53
2023/05/20 01:14:15;;;;;;;;;;;;;;;;;;1036233;28;3799;-52
2023/05/20 01:14:49;;;;;;;;;;;;;;;;;;1037050;28;3224;-51
2023/05/20 01:15:21;;;;;;;;;;;;;;;;;;1037260;28;3794;-50
2023/05/20 01:15:53;;;;;;;;;;;;;;;;;;1042250;28;1474;-55
2023/05/20 01:16:23;;;;;;;;;;;;;;;;;;1039331;28;4084;-55
2023/05/20 01:16:54;;;;;;;;;;;;;;;;;;1038632;28;2905;-54
2023/05/20 01:17:26;;;;;;;;;;;;;;;;;;1035079;28;3985;-53
2023/05/20 01:18:00;;;;;;;;;;;;;;;;;;1037435;28;3065;-50
2023/05/20 01:18:31;;;;;;;;;;;;;;;;;;1034456;28;3826;-50
2023/05/20 01:19:03;;;;;;;;;;;;;;;;;;1039204;28;1765;-51
2023/05/20 01:19:35;;;;;;;;;;;;;;;;;;1038300;28;3893;-49
2023/05/20 01:20:09;;;;;;;;;;;;;;;;;;1037280;28;3963;-48
2023/05/20 01:20:39;;;;;;;;;;;;;;;;;;1041343;28;3092;-49
2023/05/20 01:21:10;;;;;;;;;;;;;;;;;;1040131;28;3939;-49
2023/05/20 01:21:42;;;;;;;;;;;;;;;;;;1042038;28;1869;-46
2023/05/20 01:22:12;;;;;;;;;;;;;;;;;;1040561;28;4490;-49
2023/05/20 01:22:46;;;;;;;;;;;;;;;;;;1041517;28;3152;-46
2023/05/20 01:23:17;;;;;;;;;;;;;;;;;;1040978;28;3997;-51
2023/05/20 01:23:47;;;;;;;;;;;;;;;;;;1040872;28;1763;-54
2023/05/20 01:24:18;;;;;;;;;;;;;;;;;;1040692;28;3783;-52
2023/05/20 01:24:48;;;;;;;;;;;;;;;;;;1041059;28;1814;-49
2023/05/20 01:25:18;;;;;;;;;;;;;;;;;;1040966;28;4563;-49
2023/05/20 01:25:49;;;;;;;;;;;;;;;;;;1041291;28;3145;-47
2023/05/20 01:26:20;;;;;;;;;;;;;;;;;;1037540;28;4287;-48
2023/05/20 01:26:50;;;;;;;;;;;;;;;;;;1042420;28;2024;-49
2023/05/20 01:27:22;;;;;;;;;;;;;;;;;;1040017;28;3930;-49
2023/05/20 01:27:53;;;;;;;;;;;;;;;;;;1040196;28;3060;-53
2023/05/20 01:28:24;;;;;;;;;;;;;;;;;;1041003;28;3940;-50
2023/05/20 01:28:56;;;;;;;;;;;;;;;;;;1040865;28;2888;-51
2023/05/20 01:29:27;;;;;;;;;;;;;;;;;;1040654;28;4321;-47
2023/05/20 01:29:57;;;;;;;;;;;;;;;;;;1041086;28;3152;-50
2023/05/20 01:30:34;;;;;;;;;;;;;;;;;;1040868;28;4503;-52
2023/05/20 01:31:09;;;;;;;;;;;;;;;;;;1041903;28;4019;-50
2023/05/20 01:31:40;;;;;;;;;;;;;;;;;;1040571;28;1871;-49
2023/05/20 01:32:16;;;;;;;;;;;;;;;;;;1041077;28;3776;-50
2023/05/20 01:32:49;;;;;;;;;;;;;;;;;;1040473;28;1765;-50
2023/05/20 01:33:22;;;;;;;;;;;;;;;;;;1040764;28;3779;-47
2023/05/20 01:33:55;;;;;;;;;;;;;;;;;;1040906;28;3127;-53
2023/05/20 01:34:25;;;;;;;;;;;;;;;;;;1039879;28;4472;-54
2023/05/20 01:34:56;;;;;;;;;;;;;;;;;;1041903;28;2237;-49
2023/05/20 01:35:27;;;;;;;;;;;;;;;;;;1040820;28;4022;-50
2023/05/20 01:35:58;;;;;;;;;;;;;;;;;;1041369;28;2968;-48
2023/05/20 01:36:30;;;;;;;;;;;;;;;;;;1042272;28;3735;-52
2023/05/20 01:37:01;;;;;;;;;;;;;;;;;;1043179;28;1925;-55
2023/05/20 01:37:33;;;;;;;;;;;;;;;;;;1040755;28;4300;-47
2023/05/20 01:38:04;;;;;;;;;;;;;;;;;;1041266;28;3828;-52
2023/05/20 01:38:35;;;;;;;;;;;;;;;;;;1041089;28;3064;-50
2023/05/20 01:39:06;;;;;;;;;;;;;;;;;;1041789;28;4102;-49
2023/05/20 01:39:38;;;;;;;;;;;;;;;;;;1040549;28;2967;-49
2023/05/20 01:40:10;;;;;;;;;;;;;;;;;;1041681;28;3781;-49
2023/05/20 01:40:42;;;;;;;;;;;;;;;;;;1038111;28;1986;-47
2023/05/20 01:41:12;;;;;;;;;;;;;;;;;;1039022;28;3804;-54
2023/05/20 01:41:42;;;;;;;;;;;;;;;;;;1037642;28;2089;-54
2023/05/20 01:42:14;;;;;;;;;;;;;;;;;;1036982;28;4014;-46
2023/05/20 01:42:45;;;;;;;;;;;;;;;;;;1037087;28;3169;-51
2023/05/20 01:43:16;;;;;;;;;;;;;;;;;;1036157;28;3921;-50
2023/05/20 01:43:46;;;;;;;;;;;;;;;;;;1036193;28;1733;-48
2023/05/20 01:44:16;;;;;;;;;;;;;;;;;;1037714;28;4311;-50
2023/05/20 01:44:47;;;;;;;;;;;;;;;;;;1040917;28;3091;-48
2023/05/20 01:45:18;;;;;;;;;;;;;;;;;;1041595;28;4125;-49
2023/05/20 01:45:48;;;;;;;;;;;;;;;;;;1040789;28;3078;-50
2023/05/20 01:46:18;;;;;;;;;;;;;;;;;;1040993;28;3765;-52
2023/05/20 01:46:49;;;;;;;;;;;;;;;;;;1041689;28;3098;-50
2023/05/20 01:47:19;;;;;;;;;;;;;;;;;;1039516;28;3983;-50
2023/05/20 01:47:50;;;;;;;;;;;;;;;;;;1042317;28;3081;-53
2023/05/20 01:48:20;;;;;;;;;;;;;;;;;;1041377;28;3960;-50
2023/05/20 01:48:50;;;;;;;;;;;;;;;;;;1041991;28;3138;-52
2023/05/20 01:49:21;;;;;;;;;;;;;;;;;;1039366;28;4406;-51
2023/05/20 01:49:53;;;;;;;;;;;;;;;;;;1041668;28;3398;-47
2023/05/20 01:50:23;;;;;;;;;;;;;;;;;;1040619;28;4361;-52
2023/05/20 01:50:53;;;;;;;;;;;;;;;;;;1042985;28;1627;-50
2023/05/20 01:51:23;;;;;;;;;;;;;;;;;;1041478;28;3900;-52
2023/05/20 01:51:54;;;;;;;;;;;;;;;;;;1038447;28;1547;-50
2023/05/20 01:52:25;;;;;;;;;;;;;;;;;;1035682;28;3941;-47
2023/05/20 01:52:55;;;;;;;;;;;;;;;;;;1038353;28;1985;-53
2023/05/20 01:53:25;;;;;;;;;;;;;;;;;;1036154;28;3923;-50
2023/05/20 01:53:55;;;;;;;;;;;;;;;;;;1042525;28;2174;-46
2023/05/20 01:54:26;;;;;;;;;;;;;;;;;;1039114;28;3920;-49
2023/05/20 01:54:56;;;;;;;;;;;;;;;;;;1041106;28;2986;-51
2023/05/20 01:55:26;;;;;;;;;;;;;;;;;;1040772;28;4040;-48
2023/05/20 01:55:57;;;;;;;;;;;;;;;;;;1040239;28;3010;-51
2023/05/20 01:56:27;;;;;;;;;;;;;;;;;;1040195;28;4003;-48
2023/05/20 01:56:57;;;;;;;;;;;;;;;;;;1041130;28;2984;-49
2023/05/20 01:57:27;;;;;;;;;;;;;;;;;;1041279;28;3776;-48
2023/05/20 01:57:58;;;;;;;;;;;;;;;;;;1039336;28;4034;-50
2023/05/20 01:58:28;;;;;;;;;;;;;;;;;;1038642;28;3915;-49
2023/05/20 01:58:59;;;;;;;;;;;;;;;;;;1039002;28;3042;-48
2023/05/20 01:59:29;;;;;;;;;;;;;;;;;;1036683;28;4476;-49
2023/05/20 02:00:00;;;;;;;;;;;;;;;;;;1036268;28;3021;-55
2023/05/20 02:00:31;;;;;;;;;;;;;;;;;;1035590;28;3912;-54
2023/05/20 02:01:02;;;;;;;;;;;;;;;;;;1037058;28;4299;-48
2023/05/20 02:01:33;;;;;;;;;;;;;;;;;;1042085;28;3908;-48
2023/05/20 02:02:03;;;;;;;;;;;;;;;;;;1036468;28;3992;-51
2023/05/20 02:02:33;;;;;;;;;;;;;;;;;;1032755;28;3080;-52
2023/05/20 02:03:04;;;;;;;;;;;;;;;;;;1032842;28;3886;-52
2023/05/20 02:03:34;;;;;;;;;;;;;;;;;;1032972;28;1730;-49
2023/05/20 02:04:04;;;;;;;;;;;;;;;;;;1037419;28;4271;-53
2023/05/20 02:04:34;;;;;;;;;;;;;;;;;;1036467;28;3225;-52
2023/05/20 02:05:05;;;;;;;;;;;;;;;;;;1036587;28;3922;-55
2023/05/20 02:05:35;;;;;;;;;;;;;;;;;;1037793;28;1871;-55
2023/05/20 02:06:05;;;;;;;;;;;;;;;;;;1035591;28;3909;-52
2023/05/20 02:06:36;;;;;;;;;;;;;;;;;;1037701;28;1786;-50
2023/05/20 02:07:06;;;;;;;;;;;;;;;;;;1037993;28;3956;-51
2023/05/20 02:07:36;;;;;;;;;;;;;;;;;;1035455;28;2998;-50
2023/05/20 02:08:07;;;;;;;;;;;;;;;;;;1037097;28;4057;-48
2023/05/20 02:08:37;;;;;;;;;;;;;;;;;;1035613;28;2936;-52
2023/05/20 02:09:07;;;;;;;;;;;;;;;;;;1037106;28;3982;-47
2023/05/20 02:09:37;;;;;;;;;;;;;;;;;;1035766;28;3110;-49
2023/05/20 02:10:08;;;;;;;;;;;;;;;;;;1035669;28;3955;-52
2023/05/20 02:10:38;;;;;;;;;;;;;;;;;;1034991;28;2931;-49
2023/05/20 02:11:09;;;;;;;;;;;;;;;;;;1036850;28;4168;-50
2023/05/20 02:11:39;;;;;;;;;;;;;;;;;;1037961;28;1755;-49
2023/05/20 02:12:15;;;;;;;;;;;;;;;;;;1031567;28;3902;-51
2023/05/20 02:12:46;;;;;;;;;;;;;;;;;;1031187;28;3239;-51
2023/05/20 02:13:16;;;;;;;;;;;;;;;;;;1030016;28;3994;-49
2023/05/20 02:13:48;;;;;;;;;;;;;;;;;;1032130;28;2778;-50
2023/05/20 02:14:18;;;;;;;;;;;;;;;;;;1034020;28;3832;-48
2023/05/20 02:14:49;;;;;;;;;;;;;;;;;;1034343;28;3249;-52
2023/05/20 02:15:19;;;;;;;;;;;;;;;;;;1036336;28;3890;-51
2023/05/20 02:15:50;;;;;;;;;;;;;;;;;;1038370;28;1887;-53
2023/05/20 02:16:20;;;;;;;;;;;;;;;;;;1036575;28;3997;-49
2023/05/20 02:16:50;;;;;;;;;;;;;;;;;;1037304;28;2887;-51
2023/05/20 02:17:21;;;;;;;;;;;;;;;;;;1034914;28;3951;-51
2023/05/20 02:17:51;;;;;;;;;;;;;;;;;;1038194;28;2896;-52
2023/05/20 02:18:22;;;;;;;;;;;;;;;;;;1035493;28;3794;-49
2023/05/20 02:18:52;;;;;;;;;;;;;;;;;;1037381;28;3022;-52
2023/05/20 02:19:22;;;;;;;;;;;;;;;;;;1035770;28;4181;-50
2023/05/20 02:19:53;;;;;;;;;;;;;;;;;;1037334;28;3328;-50
2023/05/20 02:20:23;;;;;;;;;;;;;;;;;;1035326;28;3915;-49
2023/05/20 02:20:53;;;;;;;;;;;;;;;;;;1037220;28;1927;-49
2023/05/20 02:21:27;;;;;;;;;;;;;;;;;;1035425;28;3862;-46
2023/05/20 02:21:57;;;;;;;;;;;;;;;;;;1037587;28;3022;-54
2023/05/20 02:22:27;;;;;;;;;;;;;;;;;;1035239;28;4218;-46
2023/05/20 02:22:58;;;;;;;;;;;;;;;;;;1037648;28;3315;-50
2023/05/20 02:23:28;;;;;;;;;;;;;;;;;;1035992;28;3864;-47
2023/05/20 02:23:58;;;;;;;;;;;;;;;;;;1037415;28;3051;-49
2023/05/20 02:24:28;;;;;;;;;;;;;;;;;;1036885;28;3871;-51
2023/05/20 02:24:59;;;;;;;;;;;;;;;;;;1036167;28;3111;-49
2023/05/20 02:25:29;;;;;;;;;;;;;;;;;;1036606;28;3830;-52
2023/05/20 02:25:59;;;;;;;;;;;;;;;;;;1037038;28;3263;-48
2023/05/20 02:26:30;;;;;;;;;;;;;;;;;;1037198;28;3706;-51
2023/05/20 02:27:01;;;;;;;;;;;;;;;;;;1036730;28;2087;-52
2023/05/20 02:27:32;;;;;;;;;;;;;;;;;;1040763;28;3715;-53
2023/05/20 02:28:04;;;;;;;;;;;;;;;;;;1040544;28;3821;-53
2023/05/20 02:28:37;;;;;;;;;;;;;;;;;;1041109;28;1324;-52
2023/05/20 02:29:07;;;;;;;;;;;;;;;;;;1040876;28;3775;-53
2023/05/20 02:29:37;;;;;;;;;;;;;;;;;;1041621;28;2808;-51
2023/05/20 02:30:09;;;;;;;;;;;;;;;;;;1039828;28;4371;-50
2023/05/20 02:30:39;;;;;;;;;;;;;;;;;;1042053;28;3090;-50
2023/05/20 02:31:09;;;;;;;;;;;;;;;;;;1039716;28;4256;-51
2023/05/20 02:31:40;;;;;;;;;;;;;;;;;;1041085;28;1816;-50
2023/05/20 02:32:11;;;;;;;;;;;;;;;;;;1042814;28;3807;-51
2023/05/20 02:32:42;;;;;;;;;;;;;;;;;;1042076;28;2950;-52
2023/05/20 02:33:12;;;;;;;;;;;;;;;;;;1041036;28;4061;-47
2023/05/20 02:33:43;;;;;;;;;;;;;;;;;;1041538;28;2976;-52
2023/05/20 02:34:14;;;;;;;;;;;;;;;;;;1042072;28;3943;-48
2023/05/20 02:34:45;;;;;;;;;;;;;;;;;;1040009;28;3046;-52
2023/05/20 02:35:15;;;;;;;;;;;;;;;;;;1042120;28;4082;-53
2023/05/20 02:35:45;;;;;;;;;;;;;;;;;;1040261;28;3245;-53
2023/05/20 02:36:16;;;;;;;;;;;;;;;;;;1041492;28;3981;-50
2023/05/20 02:36:46;;;;;;;;;;;;;;;;;;1042302;28;2530;-50
2023/05/20 02:37:18;;;;;;;;;;;;;;;;;;1042903;28;3793;-46
2023/05/20 02:37:48;;;;;;;;;;;;;;;;;;1041201;28;1741;-46
2023/05/20 02:38:18;;;;;;;;;;;;;;;;;;1042904;28;3952;-48
2023/05/20 02:38:48;;;;;;;;;;;;;;;;;;1041499;28;3146;-49
2023/05/20 02:39:19;;;;;;;;;;;;;;;;;;1043400;28;3789;-50
2023/05/20 02:39:49;;;;;;;;;;;;;;;;;;1041501;28;2987;-52
2023/05/20 02:40:20;;;;;;;;;;;;;;;;;;1042484;28;3986;-49
2023/05/20 02:40:50;;;;;;;;;;;;;;;;;;1040950;28;2990;-53
2023/05/20 02:41:20;;;;;;;;;;;;;;;;;;1042593;28;4034;-52
2023/05/20 02:41:50;;;;;;;;;;;;;;;;;;1043455;28;2029;-53
2023/05/20 02:42:21;;;;;;;;;;;;;;;;;;1041347;28;4445;-49
2023/05/20 02:42:51;;;;;;;;;;;;;;;;;;1040535;28;3116;-50
2023/05/20 02:43:21;;;;;;;;;;;;;;;;;;1039996;28;5166;-51
2023/05/20 02:43:52;;;;;;;;;;;;;;;;;;1041189;28;1612;-51
2023/05/20 02:44:22;;;;;;;;;;;;;;;;;;1040490;28;3932;-48
2023/05/20 02:44:55;;;;;;;;;;;;;;;;;;1043034;28;3269;-51
2023/05/20 02:45:25;;;;;;;;;;;;;;;;;;1041302;28;3760;-52
2023/05/20 02:45:55;;;;;;;;;;;;;;;;;;1042535;28;2622;-45
2023/05/20 02:46:26;;;;;;;;;;;;;;;;;;1040841;28;3814;-48
2023/05/20 02:46:56;;;;;;;;;;;;;;;;;;1043722;28;1476;-47
2023/05/20 02:47:26;;;;;;;;;;;;;;;;;;1041742;28;3776;-51
2023/05/20 02:47:56;;;;;;;;;;;;;;;;;;1043456;28;1748;-49
2023/05/20 02:48:27;;;;;;;;;;;;;;;;;;1041952;28;3771;-50
2023/05/20 02:48:57;;;;;;;;;;;;;;;;;;1041570;28;2771;-52
2023/05/20 02:49:27;;;;;;;;;;;;;;;;;;1041556;28;3867;-50
2023/05/20 02:49:58;;;;;;;;;;;;;;;;;;1042632;28;2944;-51
2023/05/20 02:50:28;;;;;;;;;;;;;;;;;;1041750;28;3712;-49
2023/05/20 02:50:59;;;;;;;;;;;;;;;;;;1040838;28;3117;-48
2023/05/20 02:51:30;;;;;;;;;;;;;;;;;;1042056;28;3976;-49
2023/05/20 02:52:01;;;;;;;;;;;;;;;;;;1039679;28;2984;-47
2023/05/20 02:52:31;;;;;;;;;;;;;;;;;;1038274;28;3919;-51
2023/05/20 02:53:01;;;;;;;;;;;;;;;;;;1036812;28;2985;-48
2023/05/20 02:53:32;;;;;;;;;;;;;;;;;;1038466;28;3890;-49
2023/05/20 02:54:02;;;;;;;;;;;;;;;;;;1041225;28;4230;-54
2023/05/20 02:54:33;;;;;;;;;;;;;;;;;;1044181;28;1949;-50
2023/05/20 02:55:03;;;;;;;;;;;;;;;;;;1040704;28;3833;-48
2023/05/20 02:55:34;;;;;;;;;;;;;;;;;;1043472;28;1593;-47
2023/05/20 02:56:05;;;;;;;;;;;;;;;;;;1041596;28;4227;-52
2023/05/20 02:56:35;;;;;;;;;;;;;;;;;;1040856;28;2785;-50
2023/05/20 02:57:05;;;;;;;;;;;;;;;;;;1041097;28;4148;-49
2023/05/20 02:57:39;;;;;;;;;;;;;;;;;;1042282;28;3059;-48
2023/05/20 02:58:09;;;;;;;;;;;;;;;;;;1040749;28;3799;-52
2023/05/20 02:58:40;;;;;;;;;;;;;;;;;;1041334;28;3281;-51
2023/05/20 02:59:11;;;;;;;;;;;;;;;;;;1038798;28;3984;-49
2023/05/20 02:59:41;;;;;;;;;;;;;;;;;;1042920;28;1657;-49
2023/05/20 03:00:12;;;;;;;;;;;;;;;;;;1041585;28;4257;-55
2023/05/20 03:00:42;;;;;;;;;;;;;;;;;;1043335;28;1993;-53
2023/05/20 03:01:13;;;;;;;;;;;;;;;;;;1039859;28;3766;-52
2023/05/20 03:01:43;;;;;;;;;;;;;;;;;;1043214;28;1593;-51
2023/05/20 03:02:13;;;;;;;;;;;;;;;;;;1040620;28;4000;-48
2023/05/20 03:02:43;;;;;;;;;;;;;;;;;;1042787;28;2956;-52
2023/05/20 03:03:14;;;;;;;;;;;;;;;;;;1041470;28;3839;-49
2023/05/20 03:03:44;;;;;;;;;;;;;;;;;;1041985;28;3032;-49
2023/05/20 03:04:14;;;;;;;;;;;;;;;;;;1041320;28;4142;-54
2023/05/20 03:04:46;;;;;;;;;;;;;;;;;;1041000;28;2948;-49
2023/05/20 03:05:16;;;;;;;;;;;;;;;;;;1042889;28;3817;-46
2023/05/20 03:05:46;;;;;;;;;;;;;;;;;;1042014;28;2941;-48
2023/05/20 03:06:16;;;;;;;;;;;;;;;;;;1042480;28;3788;-50
2023/05/20 03:06:47;;;;;;;;;;;;;;;;;;1041338;28;3152;-54
2023/05/20 03:07:18;;;;;;;;;;;;;;;;;;1041262;28;3875;-53
2023/05/20 03:07:48;;;;;;;;;;;;;;;;;;1041105;28;3419;-53
2023/05/20 03:08:19;;;;;;;;;;;;;;;;;;1041257;28;3966;-52
2023/05/20 03:08:50;;;;;;;;;;;;;;;;;;1042811;28;1977;-52
2023/05/20 03:09:20;;;;;;;;;;;;;;;;;;1039263;28;3791;-47
2023/05/20 03:09:51;;;;;;;;;;;;;;;;;;1042653;28;1674;-54
2023/05/20 03:10:21;;;;;;;;;;;;;;;;;;1041533;28;3767;-49
2023/05/20 03:10:51;;;;;;;;;;;;;;;;;;1041170;28;3002;-49
2023/05/20 03:11:21;;;;;;;;;;;;;;;;;;1037876;28;3963;-49
2023/05/20 03:11:52;;;;;;;;;;;;;;;;;;1034641;28;1877;-50
2023/05/20 03:12:24;;;;;;;;;;;;;;;;;;1031245;28;3876;-51
2023/05/20 03:12:55;;;;;;;;;;;;;;;;;;1034374;28;3054;-51
2023/05/20 03:13:25;;;;;;;;;;;;;;;;;;1037447;28;3981;-48
2023/05/20 03:13:55;;;;;;;;;;;;;;;;;;1041903;28;3221;-52
2023/05/20 03:14:26;;;;;;;;;;;;;;;;;;1040512;28;4134;-52
2023/05/20 03:14:57;;;;;;;;;;;;;;;;;;1042885;28;1474;-51
2023/05/20 03:15:28;;;;;;;;;;;;;;;;;;1041486;28;3882;-46
2023/05/20 03:16:00;;;;;;;;;;;;;;;;;;1042259;28;1830;-47
2023/05/20 03:16:30;;;;;;;;;;;;;;;;;;1040981;28;4325;-47
2023/05/20 03:17:00;;;;;;;;;;;;;;;;;;1043657;28;1425;-49
2023/05/20 03:17:31;;;;;;;;;;;;;;;;;;1040210;28;3911;-47
2023/05/20 03:18:01;;;;;;;;;;;;;;;;;;1043192;28;1628;-48
2023/05/20 03:18:32;;;;;;;;;;;;;;;;;;1040594;28;3872;-52
2023/05/20 03:19:02;;;;;;;;;;;;;;;;;;1043334;28;5488;-53
2023/05/20 03:19:32;;;;;;;;;;;;;;;;;;1041191;28;2989;-48
2023/05/20 03:20:06;;;;;;;;;;;;;;;;;;1039322;28;3953;-52
2023/05/20 03:20:37;;;;;;;;;;;;;;;;;;1042507;28;1472;-50
2023/05/20 03:21:07;;;;;;;;;;;;;;;;;;1042802;28;4012;-51
2023/05/20 03:21:38;;;;;;;;;;;;;;;;;;1039079;28;1609;-52
2023/05/20 03:22:08;;;;;;;;;;;;;;;;;;1037327;28;5791;-54
2023/05/20 03:22:38;;;;;;;;;;;;;;;;;;1038218;28;3127;-50
2023/05/20 03:23:08;;;;;;;;;;;;;;;;;;1041660;28;3942;-51
2023/05/20 03:23:39;;;;;;;;;;;;;;;;;;1043299;28;1677;-52
2023/05/20 03:24:09;;;;;;;;;;;;;;;;;;1041333;28;4250;-49
2023/05/20 03:24:41;;;;;;;;;;;;;;;;;;1043180;28;3069;-50
2023/05/20 03:25:11;;;;;;;;;;;;;;;;;;1040565;28;3908;-50
2023/05/20 03:25:41;;;;;;;;;;;;;;;;;;1042011;28;3261;-52
2023/05/20 03:26:11;;;;;;;;;;;;;;;;;;1041197;28;3943;-46
2023/05/20 03:26:42;;;;;;;;;;;;;;;;;;1042666;28;3114;-52
2023/05/20 03:27:13;;;;;;;;;;;;;;;;;;1041324;28;3957;-48
2023/05/20 03:27:43;;;;;;;;;;;;;;;;;;1041873;28;3073;-48
2023/05/20 03:28:13;;;;;;;;;;;;;;;;;;1040267;28;3894;-50
2023/05/20 03:28:44;;;;;;;;;;;;;;;;;;1042546;28;1664;-48
2023/05/20 03:29:16;;;;;;;;;;;;;;;;;;1038029;28;3971;-48
2023/05/20 03:29:47;;;;;;;;;;;;;;;;;;1039155;28;1757;-54
2023/05/20 03:30:17;;;;;;;;;;;;;;;;;;1036794;28;3795;-48
2023/05/20 03:30:47;;;;;;;;;;;;;;;;;;1043158;28;1546;-53
2023/05/20 03:31:18;;;;;;;;;;;;;;;;;;1041296;28;3936;-55
2023/05/20 03:31:48;;;;;;;;;;;;;;;;;;1043827;28;2995;-49
2023/05/20 03:32:19;;;;;;;;;;;;;;;;;;1041746;28;3946;-47
2023/05/20 03:32:49;;;;;;;;;;;;;;;;;;1043488;28;1463;-48
2023/05/20 03:33:19;;;;;;;;;;;;;;;;;;1043277;28;3869;-56
2023/05/20 03:33:50;;;;;;;;;;;;;;;;;;1043027;28;1913;-48
2023/05/20 03:34:20;;;;;;;;;;;;;;;;;;1041835;28;3874;-51